createdAt,value
2022-11-18T00:01:39.800Z,8.60
2022-11-18T00:04:09.308Z,8.50
2022-11-18T00:06:37.647Z,8.50
2022-11-18T00:09:06.208Z,8.40
2022-11-18T00:11:51.836Z,8.30
2022-11-18T00:14:22.320Z,8.30
2022-11-18T00:16:53.582Z,8.20
2022-11-18T00:19:25.637Z,8.20
2022-11-18T00:21:54.202Z,8.20
2022-11-18T00:24:23.078Z,8.20
2022-11-18T00:26:51.161Z,8.30
2022-11-18T00:29:19.954Z,8.40
2022-11-18T00:31:49.127Z,8.40
2022-11-18T00:34:19.239Z,8.30
2022-11-18T00:36:49.707Z,8.40
2022-11-18T00:39:19.659Z,8.40
2022-11-18T00:42:11.596Z,8.40
2022-11-18T00:44:39.765Z,8.50
2022-11-18T00:47:07.837Z,8.50
2022-11-18T00:49:36.281Z,8.50
2022-11-18T00:54:49.454Z,8.60
2022-11-18T00:57:17.574Z,8.60
2022-11-18T00:59:45.641Z,8.50
2022-11-18T01:02:13.781Z,8.60
2022-11-18T01:04:41.947Z,8.60
2022-11-18T01:07:10.162Z,8.50
2022-11-18T01:09:38.279Z,8.50
2022-11-18T01:12:25.369Z,8.60
2022-11-18T01:14:53.654Z,8.60
2022-11-18T01:17:21.821Z,8.60
2022-11-18T01:19:50.111Z,8.70
2022-11-18T01:22:18.308Z,8.70
2022-11-18T01:24:46.444Z,8.80
2022-11-18T01:27:16.437Z,8.70
2022-11-18T01:29:44.543Z,8.70
2022-11-18T01:32:28.034Z,8.70
2022-11-18T01:34:56.303Z,8.80
2022-11-18T01:37:24.338Z,8.80
2022-11-18T01:39:52.412Z,8.80
2022-11-18T01:42:21.906Z,8.80
2022-11-18T01:45:09.655Z,8.80
2022-11-18T01:47:42.937Z,8.80
2022-11-18T01:50:12.084Z,8.70
2022-11-18T01:52:41.445Z,8.70
2022-11-18T01:55:14.513Z,8.80
2022-11-18T01:57:45.838Z,8.70
2022-11-18T02:00:15.151Z,8.70
2022-11-18T02:02:43.429Z,8.70
2022-11-18T02:05:12.739Z,8.70
2022-11-18T02:07:43.947Z,8.80
2022-11-18T02:10:21.200Z,8.70
2022-11-18T02:12:51.916Z,8.80
2022-11-18T02:15:23.246Z,8.70
2022-11-18T02:18:01.282Z,8.80
2022-11-18T02:20:34.426Z,8.80
2022-11-18T02:23:44.395Z,8.70
2022-11-18T02:26:47.030Z,8.60
2022-11-18T02:29:26.840Z,8.60
2022-11-18T02:32:01.309Z,8.60
2022-11-18T02:34:41.058Z,8.60
2022-11-18T02:37:17.657Z,8.60
2022-11-18T02:39:50.780Z,8.60
2022-11-18T02:42:19.550Z,8.70
2022-11-18T02:44:53.646Z,8.70
2022-11-18T02:47:23.293Z,8.70
2022-11-18T02:49:55.484Z,8.70
2022-11-18T02:52:25.997Z,8.70
2022-11-18T02:54:55.796Z,8.70
2022-11-18T02:57:26.512Z,8.70
2022-11-18T02:59:56.458Z,8.70
2022-11-18T03:02:24.686Z,8.60
2022-11-18T03:04:56.175Z,8.60
2022-11-18T03:07:29.589Z,8.60
2022-11-18T03:10:00.137Z,8.60
2022-11-18T03:12:34.044Z,8.60
2022-11-18T03:15:13.173Z,8.60
2022-11-18T03:17:52.489Z,8.50
2022-11-18T03:20:26.789Z,8.50
2022-11-18T03:22:58.767Z,8.50
2022-11-18T03:25:35.896Z,8.50
2022-11-18T03:31:14.838Z,8.50
2022-11-18T03:33:48.294Z,8.50
2022-11-18T03:36:20.839Z,8.40
2022-11-18T03:38:51.508Z,8.50
2022-11-18T03:41:21.793Z,8.50
2022-11-18T03:43:54.529Z,8.50
2022-11-18T03:46:28.137Z,8.50
2022-11-18T03:48:57.885Z,8.50
2022-11-18T03:51:34.634Z,8.50
2022-11-18T03:54:06.718Z,8.50
2022-11-18T03:56:41.901Z,8.60
2022-11-18T04:02:14.571Z,8.60
2022-11-18T04:04:45.083Z,8.60
2022-11-18T04:07:21.440Z,8.60
2022-11-18T04:09:55.685Z,8.70
2022-11-18T04:12:26.029Z,8.70
2022-11-18T04:14:56.412Z,8.60
2022-11-18T04:17:29.656Z,8.60
2022-11-18T04:19:57.974Z,8.60
2022-11-18T04:22:26.022Z,8.70
2022-11-18T04:24:54.077Z,8.70
2022-11-18T04:27:22.148Z,8.70
2022-11-18T04:29:50.210Z,8.70
2022-11-18T04:32:18.239Z,8.60
2022-11-18T04:34:48.029Z,8.50
2022-11-18T04:37:16.115Z,8.50
2022-11-18T04:39:44.161Z,8.50
2022-11-18T04:42:12.344Z,8.50
2022-11-18T04:44:40.505Z,8.50
2022-11-18T04:50:08.358Z,8.60
2022-11-18T04:52:36.414Z,8.60
2022-11-18T04:55:04.721Z,8.70
2022-11-18T04:57:32.812Z,8.70
2022-11-18T05:00:00.811Z,8.70
2022-11-18T05:02:28.982Z,8.70
2022-11-18T05:04:57.030Z,8.80
2022-11-18T05:07:26.613Z,8.80
2022-11-18T05:09:54.711Z,8.80
2022-11-18T05:12:42.010Z,8.80
2022-11-18T05:15:10.446Z,8.90
2022-11-18T05:17:38.725Z,8.90
2022-11-18T05:20:08.080Z,8.90
2022-11-18T05:22:37.646Z,8.90
2022-11-18T05:25:06.534Z,8.90
2022-11-18T05:27:35.051Z,8.90
2022-11-18T05:35:41.156Z,9.00
2022-11-18T05:41:08.826Z,8.90
2022-11-18T05:43:37.042Z,9.00
2022-11-18T05:46:05.740Z,8.90
2022-11-18T05:48:33.777Z,9.00
2022-11-18T05:51:01.855Z,8.90
2022-11-18T05:53:30.019Z,9.00
2022-11-18T05:56:02.494Z,9.10
2022-11-18T05:58:31.965Z,9.20
2022-11-18T06:01:04.104Z,9.10
2022-11-18T06:03:34.722Z,9.10
2022-11-18T06:06:05.146Z,9.20
2022-11-18T06:08:39.114Z,9.10
2022-11-18T06:11:09.917Z,9.10
2022-11-18T06:13:43.558Z,9.20
2022-11-18T06:19:05.345Z,9.10
2022-11-18T06:21:34.605Z,9.10
2022-11-18T06:24:03.532Z,9.00
2022-11-18T06:26:31.830Z,9.10
2022-11-18T06:29:01.545Z,9.10
2022-11-18T06:31:29.614Z,9.10
2022-11-18T06:33:57.749Z,9.10
2022-11-18T06:36:25.849Z,9.10
2022-11-18T06:38:53.925Z,9.10
2022-11-18T06:41:22.059Z,9.00
2022-11-18T06:43:49.082Z,9.00
2022-11-18T06:46:36.673Z,9.00
2022-11-18T06:49:05.050Z,9.00
2022-11-18T06:51:33.414Z,8.90
2022-11-18T06:54:06.032Z,8.90
2022-11-18T06:56:37.591Z,8.90
2022-11-18T06:59:06.310Z,8.80
2022-11-18T07:01:38.733Z,8.80
2022-11-18T07:04:07.122Z,8.70
2022-11-18T07:06:37.361Z,8.70
2022-11-18T07:09:08.046Z,8.70
2022-11-18T07:11:38.375Z,8.70
2022-11-18T07:14:06.507Z,8.70
2022-11-18T07:16:37.423Z,8.70
2022-11-18T07:19:10.538Z,8.70
2022-11-18T07:21:39.030Z,8.70
2022-11-18T07:24:08.751Z,8.80
2022-11-18T07:26:37.370Z,8.70
2022-11-18T07:29:06.045Z,8.80
2022-11-18T07:31:35.190Z,8.80
2022-11-18T07:34:05.236Z,8.90
2022-11-18T07:36:35.925Z,8.90
2022-11-18T07:39:05.762Z,9.00
2022-11-18T07:41:34.648Z,9.00
2022-11-18T07:44:05.216Z,9.10
2022-11-18T07:46:34.817Z,9.10
2022-11-18T07:49:06.568Z,9.10
2022-11-18T07:51:37.037Z,9.10
2022-11-18T07:54:08.137Z,9.10
2022-11-18T07:56:36.349Z,9.10
2022-11-18T07:59:04.877Z,9.00
2022-11-18T08:01:33.145Z,9.10
2022-11-18T08:04:08.798Z,9.20
2022-11-18T08:06:37.814Z,9.50
2022-11-18T08:09:07.187Z,9.80
2022-11-18T08:11:35.485Z,10.30
2022-11-18T08:14:03.611Z,10.60
2022-11-18T08:16:31.744Z,10.60
2022-11-18T08:19:01.303Z,10.40
2022-11-18T08:21:30.821Z,10.30
2022-11-18T08:23:59.473Z,10.50
2022-11-18T08:26:28.059Z,10.80
2022-11-18T08:28:56.420Z,10.70
2022-11-18T08:31:26.765Z,10.60
2022-11-18T08:33:57.896Z,10.50
2022-11-18T08:36:28.434Z,10.30
2022-11-18T08:38:59.971Z,10.00
2022-11-18T08:41:33.549Z,10.10
2022-11-18T08:44:02.005Z,10.20
2022-11-18T08:46:30.382Z,10.30
2022-11-18T08:48:58.803Z,10.50
2022-11-18T08:51:27.310Z,10.80
2022-11-18T08:53:57.373Z,11.00
2022-11-18T08:56:26.213Z,11.10
2022-11-18T08:58:54.755Z,11.10
2022-11-18T09:01:23.132Z,11.20
2022-11-18T09:03:51.960Z,11.40
2022-11-18T09:06:22.637Z,12.50
2022-11-18T09:08:51.002Z,12.60
2022-11-18T09:11:21.900Z,12.40
2022-11-18T09:16:41.790Z,15.20
2022-11-18T09:19:39.687Z,16.90
2022-11-18T09:21:57.937Z,15.60
2022-11-18T09:24:26.041Z,14.30
2022-11-18T09:26:55.811Z,14.20
2022-11-18T09:29:26.168Z,14.10
2022-11-18T09:31:55.103Z,13.50
2022-11-18T09:34:23.291Z,14.10
2022-11-18T09:36:56.017Z,13.30
2022-11-18T09:39:24.843Z,12.60
2022-11-18T09:42:05.463Z,12.10
2022-11-18T09:44:49.412Z,12.00
2022-11-18T09:47:26.776Z,11.80
2022-11-18T09:49:57.336Z,11.90
2022-11-18T09:52:34.404Z,12.20
2022-11-18T09:55:05.872Z,12.20
2022-11-18T09:57:40.819Z,12.50
2022-11-18T10:00:16.071Z,12.50
2022-11-18T10:02:53.910Z,12.60
2022-11-18T10:05:24.302Z,12.50
2022-11-18T10:08:02.535Z,12.50
2022-11-18T10:10:40.678Z,12.80
2022-11-18T10:13:18.570Z,13.50
2022-11-18T10:15:58.486Z,13.10
2022-11-18T10:18:58.628Z,13.60
2022-11-18T10:21:28.208Z,13.70
2022-11-18T10:24:02.607Z,14.00
2022-11-18T10:26:35.868Z,13.50
2022-11-18T10:29:09.681Z,14.10
2022-11-18T10:31:39.785Z,15.60
2022-11-18T10:34:11.580Z,16.80
2022-11-18T10:36:39.647Z,16.90
2022-11-18T10:39:10.528Z,16.60
2022-11-18T10:41:45.456Z,17.40
2022-11-18T10:44:35.827Z,17.70
2022-11-18T10:47:27.991Z,16.70
2022-11-18T10:49:58.488Z,16.50
2022-11-18T10:52:27.435Z,16.10
2022-11-18T10:55:19.369Z,15.40
2022-11-18T10:57:48.090Z,14.50
2022-11-18T11:00:45.160Z,13.80
2022-11-18T11:03:28.372Z,12.80
2022-11-18T11:06:30.279Z,12.40
2022-11-18T11:09:01.108Z,12.60
2022-11-18T11:11:31.194Z,12.80
2022-11-18T11:14:07.663Z,12.60
2022-11-18T11:16:46.810Z,12.30
2022-11-18T11:19:18.356Z,12.00
2022-11-18T11:21:46.384Z,11.80
2022-11-18T11:24:14.556Z,11.80
2022-11-18T11:30:01.036Z,12.70
2022-11-18T11:32:41.216Z,13.20
2022-11-18T11:35:18.491Z,13.60
2022-11-18T11:37:55.005Z,14.10
2022-11-18T11:40:31.194Z,13.60
2022-11-18T11:43:18.838Z,14.40
2022-11-18T11:46:03.857Z,13.70
2022-11-18T11:48:45.234Z,13.80
2022-11-18T11:51:21.433Z,13.60
2022-11-18T11:54:21.537Z,13.70
2022-11-18T11:56:54.632Z,13.70
2022-11-18T11:59:30.046Z,13.40
2022-11-18T12:02:27.322Z,12.70
2022-11-18T12:05:01.421Z,13.50
2022-11-18T12:07:33.062Z,15.00
2022-11-18T12:10:20.673Z,15.10
2022-11-18T12:12:55.708Z,15.40
2022-11-18T12:15:45.911Z,15.00
2022-11-18T12:18:20.991Z,14.80
2022-11-18T12:20:57.966Z,14.50
2022-11-18T12:23:27.737Z,13.80
2022-11-18T12:26:04.605Z,13.40
2022-11-18T12:28:36.423Z,13.20
2022-11-18T12:31:36.336Z,13.30
2022-11-18T12:34:20.631Z,13.40
2022-11-18T12:36:50.517Z,12.80
2022-11-18T12:39:57.857Z,13.20
2022-11-18T12:42:58.905Z,13.50
2022-11-18T12:45:52.990Z,14.20
2022-11-18T12:48:38.803Z,14.10
2022-11-18T12:51:46.238Z,13.80
2022-11-18T12:54:35.271Z,13.80
2022-11-18T12:57:13.181Z,13.50
2022-11-18T12:59:41.231Z,13.60
2022-11-18T13:02:22.436Z,13.80
2022-11-18T13:05:08.786Z,13.80
2022-11-18T13:08:01.931Z,13.20
2022-11-18T13:10:34.659Z,13.30
2022-11-18T13:13:04.007Z,13.20
2022-11-18T13:15:50.265Z,13.10
2022-11-18T13:18:20.350Z,12.80
2022-11-18T13:20:57.558Z,12.10
2022-11-18T13:23:46.718Z,11.80
2022-11-18T13:26:21.544Z,11.50
2022-11-18T13:29:12.335Z,11.60
2022-11-18T13:31:47.854Z,11.60
2022-11-18T13:34:20.332Z,11.60
2022-11-18T13:36:50.644Z,11.60
2022-11-18T13:39:23.005Z,11.60
2022-11-18T13:42:02.328Z,11.60
2022-11-18T13:44:32.645Z,11.50
2022-11-18T13:47:12.575Z,11.50
2022-11-18T13:49:53.761Z,11.40
2022-11-18T13:52:25.272Z,11.40
2022-11-18T13:54:54.855Z,11.50
2022-11-18T13:57:26.456Z,11.60
2022-11-18T13:59:56.164Z,11.50
2022-11-18T14:02:24.657Z,11.60
2022-11-18T14:04:57.033Z,11.60
2022-11-18T14:07:32.665Z,11.70
2022-11-18T14:10:02.836Z,11.70
2022-11-18T14:12:34.212Z,11.60
2022-11-18T14:15:22.983Z,11.60
2022-11-18T14:17:52.863Z,11.60
2022-11-18T14:20:21.649Z,11.60
2022-11-18T14:22:53.478Z,11.60
2022-11-18T14:25:26.516Z,11.50
2022-11-18T14:27:57.456Z,11.50
2022-11-18T14:30:36.857Z,11.40
2022-11-18T14:33:20.500Z,11.40
2022-11-18T14:35:55.460Z,11.20
2022-11-18T14:41:16.706Z,11.20
2022-11-18T14:43:49.987Z,11.10
2022-11-18T14:46:21.636Z,11.00
2022-11-18T14:48:49.750Z,10.90
2022-11-18T14:51:18.338Z,10.80
2022-11-18T14:53:46.585Z,10.80
2022-11-18T14:56:19.965Z,10.70
2022-11-18T14:58:49.363Z,10.70
2022-11-18T15:01:17.494Z,10.70
2022-11-18T15:03:45.742Z,10.60
2022-11-18T15:06:15.930Z,10.60
2022-11-18T15:08:45.268Z,10.60
2022-11-18T15:11:13.485Z,10.50
2022-11-18T15:13:42.519Z,10.50
2022-11-18T15:16:18.139Z,10.50
2022-11-18T15:18:48.687Z,10.50
2022-11-18T15:21:17.331Z,10.40
2022-11-18T15:23:46.112Z,10.40
2022-11-18T15:26:20.466Z,10.40
2022-11-18T15:28:49.122Z,10.30
2022-11-18T15:31:19.627Z,10.20
2022-11-18T15:33:48.516Z,10.20
2022-11-18T15:36:18.361Z,10.20
2022-11-18T15:38:48.394Z,10.20
2022-11-18T15:41:18.759Z,10.10
2022-11-18T15:43:47.131Z,10.10
2022-11-18T15:46:15.488Z,10.00
2022-11-18T15:48:44.980Z,10.00
2022-11-18T15:51:13.376Z,10.00
2022-11-18T15:53:41.629Z,9.90
2022-11-18T15:56:26.644Z,9.90
2022-11-18T15:58:56.880Z,9.80
2022-11-18T16:01:26.033Z,9.80
2022-11-18T16:03:56.459Z,9.80
2022-11-18T16:06:25.445Z,9.80
2022-11-18T16:08:59.121Z,9.70
2022-11-18T16:11:45.305Z,9.80
2022-11-18T16:14:15.151Z,9.80
2022-11-18T16:16:44.965Z,9.80
2022-11-18T16:19:16.765Z,9.70
2022-11-18T16:21:46.951Z,9.70
2022-11-18T16:24:17.359Z,9.70
2022-11-18T16:26:45.692Z,9.60
2022-11-18T16:29:15.790Z,9.40
2022-11-18T16:31:43.830Z,9.40
2022-11-18T16:34:14.963Z,9.30
2022-11-18T16:36:44.608Z,9.30
2022-11-18T16:39:14.980Z,9.40
2022-11-18T16:41:44.634Z,9.50
2022-11-18T16:44:15.415Z,9.50
2022-11-18T16:46:46.547Z,9.50
2022-11-18T16:49:18.022Z,9.50
2022-11-18T16:51:48.033Z,9.50
2022-11-18T16:54:18.879Z,9.50
2022-11-18T16:56:48.852Z,9.40
2022-11-18T16:59:19.008Z,9.40
2022-11-18T17:01:47.214Z,9.30
2022-11-18T17:04:16.708Z,9.20
2022-11-18T17:06:46.189Z,9.20
2022-11-18T17:09:16.621Z,9.20
2022-11-18T17:11:44.965Z,9.20
2022-11-18T17:14:13.366Z,9.20
2022-11-18T17:16:41.655Z,9.30
2022-11-18T17:19:14.176Z,9.30
2022-11-18T17:21:44.470Z,9.20
2022-11-18T17:24:14.750Z,9.10
2022-11-18T17:26:43.090Z,9.10
2022-11-18T17:29:11.656Z,9.00
2022-11-18T17:31:40.260Z,8.90
2022-11-18T17:34:11.746Z,8.90
2022-11-18T17:36:39.964Z,8.90
2022-11-18T17:39:11.596Z,8.90
2022-11-18T17:41:57.705Z,8.90
2022-11-18T17:44:25.927Z,9.00
2022-11-18T17:46:54.102Z,8.90
2022-11-18T17:49:22.482Z,8.90
2022-11-18T17:51:51.617Z,8.90
2022-11-18T17:54:23.641Z,8.90
2022-11-18T17:56:52.947Z,8.90
2022-11-18T17:59:21.061Z,8.90
2022-11-18T18:01:52.849Z,8.90
2022-11-18T18:04:23.958Z,9.00
2022-11-18T18:06:53.206Z,8.80
2022-11-18T18:09:28.844Z,8.80
2022-11-18T18:11:59.465Z,8.80
2022-11-18T18:14:26.670Z,8.70
2022-11-18T18:16:55.085Z,8.70
2022-11-18T18:19:24.490Z,8.80
2022-11-18T18:21:53.252Z,8.80
2022-11-18T18:24:24.009Z,8.90
2022-11-18T18:26:52.032Z,8.80
2022-11-18T18:29:20.245Z,8.70
2022-11-18T18:31:48.266Z,8.80
2022-11-18T18:34:16.839Z,8.70
2022-11-18T18:36:45.330Z,8.70
2022-11-18T18:39:13.392Z,8.60
2022-11-18T18:41:42.716Z,8.60
2022-11-18T18:44:16.853Z,8.60
2022-11-18T18:46:45.622Z,8.60
2022-11-18T18:49:15.316Z,8.70
2022-11-18T18:51:44.750Z,8.70
2022-11-18T18:54:15.302Z,8.70
2022-11-18T18:56:48.774Z,8.70
2022-11-18T18:59:16.902Z,8.70
2022-11-18T19:01:45.273Z,8.70
2022-11-18T19:04:14.261Z,8.60
2022-11-18T19:07:45.074Z,8.70
2022-11-18T19:10:13.238Z,8.70
2022-11-18T19:12:45.757Z,8.70
2022-11-18T19:15:15.469Z,8.70
2022-11-18T19:17:44.877Z,8.60
2022-11-18T19:20:31.813Z,8.50
2022-11-18T19:23:03.526Z,8.60
2022-11-18T19:25:37.163Z,8.50
2022-11-18T19:28:06.718Z,8.60
2022-11-18T19:30:34.794Z,8.70
2022-11-18T19:33:02.889Z,8.70
2022-11-18T19:35:31.018Z,8.70
2022-11-18T19:37:59.265Z,8.70
2022-11-18T19:40:27.269Z,8.60
2022-11-18T19:42:56.566Z,8.70
2022-11-18T19:45:26.284Z,8.70
2022-11-18T19:47:54.371Z,8.60
2022-11-18T19:50:22.481Z,8.60
2022-11-18T19:52:50.496Z,8.60
2022-11-18T19:55:18.791Z,8.60
2022-11-18T19:57:46.848Z,8.70
2022-11-18T20:00:16.453Z,8.70
2022-11-18T20:02:45.844Z,8.60
2022-11-18T20:05:31.299Z,8.60
2022-11-18T20:07:59.391Z,8.60
2022-11-18T20:10:27.433Z,8.60
2022-11-18T20:12:56.197Z,8.60
2022-11-18T20:15:24.313Z,8.60
2022-11-18T20:17:53.735Z,8.60
2022-11-18T20:20:21.978Z,8.60
2022-11-18T20:22:50.054Z,8.60
2022-11-18T20:31:04.404Z,8.70
2022-11-18T20:33:36.739Z,8.70
2022-11-18T20:36:09.236Z,8.70
2022-11-18T20:38:37.508Z,8.70
2022-11-18T20:41:07.480Z,8.70
2022-11-18T20:43:36.868Z,8.80
2022-11-18T20:46:07.534Z,8.80
2022-11-18T20:48:37.735Z,8.70
2022-11-18T20:51:06.862Z,8.60
2022-11-18T20:53:37.794Z,8.60
2022-11-18T20:56:06.625Z,8.60
2022-11-18T20:58:34.999Z,8.60
2022-11-18T21:01:10.475Z,8.60
2022-11-18T21:03:41.183Z,8.60
2022-11-18T21:06:13.943Z,8.60
2022-11-18T21:08:43.425Z,8.60
2022-11-18T21:11:14.458Z,8.50
2022-11-18T21:14:00.563Z,8.50
2022-11-18T21:16:29.363Z,8.40
2022-11-18T21:18:59.015Z,8.40
2022-11-18T21:21:44.668Z,8.30
2022-11-18T21:24:14.349Z,8.30
2022-11-18T21:26:42.945Z,8.50
2022-11-18T21:29:12.781Z,8.40
2022-11-18T21:31:40.858Z,8.40
2022-11-18T21:34:11.273Z,8.50
2022-11-18T21:36:44.354Z,8.40
2022-11-18T21:39:15.954Z,8.30
2022-11-18T21:41:44.292Z,8.40
2022-11-18T21:44:13.770Z,8.40
2022-11-18T21:46:43.348Z,8.40
2022-11-18T21:49:13.409Z,8.30
2022-11-18T21:51:41.707Z,8.30
2022-11-18T21:54:09.853Z,8.30
2022-11-18T21:56:37.923Z,8.30
2022-11-18T21:59:07.528Z,8.30
2022-11-18T22:01:35.845Z,8.30
2022-11-18T22:04:05.782Z,8.20
2022-11-18T22:06:35.655Z,8.20
2022-11-18T22:09:06.202Z,8.20
2022-11-18T22:11:34.233Z,8.10
2022-11-18T22:14:02.293Z,8.10
2022-11-18T22:16:30.529Z,8.00
2022-11-18T22:19:03.685Z,7.90
2022-11-18T22:21:36.477Z,7.90
2022-11-18T22:24:04.941Z,7.90
2022-11-18T22:26:32.957Z,8.00
2022-11-18T22:29:01.298Z,7.90
2022-11-18T22:31:29.846Z,7.90
2022-11-18T22:33:58.115Z,7.90
2022-11-18T22:36:28.461Z,7.90
2022-11-18T22:38:59.156Z,7.90
2022-11-18T22:41:46.352Z,7.80
2022-11-18T22:44:16.239Z,7.80
2022-11-18T22:46:45.681Z,7.80
2022-11-18T22:49:14.275Z,7.80
2022-11-18T22:51:42.632Z,7.70
2022-11-18T22:57:00.818Z,7.60
2022-11-18T22:59:28.887Z,7.70
2022-11-18T23:01:56.934Z,7.70
2022-11-18T23:04:26.520Z,7.50
2022-11-18T23:06:54.753Z,7.40
2022-11-18T23:09:24.625Z,7.50
2022-11-18T23:12:10.192Z,7.40
2022-11-18T23:14:38.221Z,7.30
2022-11-18T23:17:06.877Z,7.40
2022-11-18T23:19:36.840Z,7.40
2022-11-18T23:22:04.979Z,7.20
2022-11-18T23:24:34.685Z,7.00
2022-11-18T23:27:02.960Z,7.00
2022-11-18T23:29:30.987Z,6.80
2022-11-18T23:31:59.103Z,6.80
2022-11-18T23:34:27.180Z,6.70
2022-11-18T23:36:55.291Z,6.70
2022-11-18T23:39:23.583Z,6.80
2022-11-18T23:41:53.112Z,6.80
2022-11-18T23:44:41.683Z,6.70
2022-11-18T23:47:09.834Z,6.80
2022-11-18T23:49:38.084Z,6.70
2022-11-18T23:52:06.516Z,6.70
2022-11-18T23:54:34.922Z,6.70
2022-11-18T23:57:05.609Z,6.60
2022-11-18T23:59:34.265Z,6.60
